Time,TemperatureF,DewpointF,PressureIn,WindDirection,WindDirectionDegrees,WindSpeedMPH,WindSpeedGustMPH,Humidity,HourlyPrecipIn,Conditions,Clouds,dailyrainin,SoftwareType,DateUTC
2017-04-27 00:10:00,60.0,57.0,29.75,East,88,0.0,-999.0,88,-99.99,,,0.00,weatherlink.com 1.10,2017-04-27 07:10:00,
2017-04-27 00:25:00,59.7,56.0,29.76,East,94,0.0,-999.0,88,-99.99,,,0.00,weatherlink.com 1.10,2017-04-27 07:25:00,
2017-04-27 00:40:00,59.5,56.0,29.77,SE,138,0.0,-999.0,88,-99.99,,,0.00,weatherlink.com 1.10,2017-04-27 07:40:00,
2017-04-27 00:55:00,59.3,56.0,29.76,SE,125,0.0,-999.0,89,-99.99,,,0.00,weatherlink.com 1.10,2017-04-27 07:55:00,
2017-04-27 01:10:00,59.3,56.0,29.75,East,98,0.0,-999.0,89,-99.99,,,0.00,weatherlink.com 1.10,2017-04-27 08:10:00,
2017-04-27 01:26:00,59.2,56.0,29.73,East,84,0.0,-999.0,89,-99.99,,,0.00,weatherlink.com 1.10,2017-04-27 08:26:00,
2017-04-27 01:40:00,59.0,56.0,29.73,ENE,69,0.0,-999.0,89,-99.99,,,0.00,weatherlink.com 1.10,2017-04-27 08:40:00,
2017-04-27 01:55:00,58.8,56.0,29.73,NNE,26,0.0,-999.0,89,-99.99,,,0.00,weatherlink.com 1.10,2017-04-27 08:55:00,
2017-04-27 02:11:00,58.7,56.0,29.73,NNE,23,0.0,-999.0,90,-99.99,,,0.00,weatherlink.com 1.10,2017-04-27 09:11:00,
2017-04-27 02:26:00,58.6,56.0,29.74,North,360,0.0,-999.0,90,-99.99,,,0.00,weatherlink.com 1.10,2017-04-27 09:26:00,
2017-04-27 02:41:00,58.4,56.0,29.74,North,5,0.0,-999.0,90,-99.99,,,0.00,weatherlink.com 1.10,2017-04-27 09:41:00,
2017-04-27 02:56:00,58.1,55.0,29.73,North,5,0.0,-999.0,90,-99.99,,,0.00,weatherlink.com 1.10,2017-04-27 09:56:00,
2017-04-27 03:11:00,57.9,55.0,29.73,North,5,0.0,-999.0,90,-99.99,,,0.00,weatherlink.com 1.10,2017-04-27 10:11:00,
2017-04-27 03:26:00,57.8,55.0,29.73,North,5,0.0,-999.0,91,-99.99,,,0.00,weatherlink.com 1.10,2017-04-27 10:26:00,
2017-04-27 03:41:00,58.0,55.0,29.73,North,5,0.0,-999.0,91,-99.99,,,0.00,weatherlink.com 1.10,2017-04-27 10:41:00,
2017-04-27 03:56:00,58.2,56.0,29.72,North,5,0.0,-999.0,91,-99.99,,,0.00,weatherlink.com 1.10,2017-04-27 10:56:00,
2017-04-27 04:11:00,58.3,56.0,29.72,North,5,0.0,-999.0,91,-99.99,,,0.00,weatherlink.com 1.10,2017-04-27 11:11:00,
2017-04-27 04:26:00,58.5,56.0,29.72,North,5,0.0,-999.0,91,-99.99,,,0.00,weatherlink.com 1.10,2017-04-27 11:26:00,
2017-04-27 04:41:00,58.4,56.0,29.73,North,5,0.0,-999.0,91,-99.99,,,0.00,weatherlink.com 1.10,2017-04-27 11:41:00,
2017-04-27 04:56:00,58.1,56.0,29.72,North,5,0.0,-999.0,91,-99.99,,,0.00,weatherlink.com 1.10,2017-04-27 11:56:00,
2017-04-27 05:11:00,57.9,55.0,29.72,North,5,0.0,-999.0,91,-99.99,,,0.00,weatherlink.com 1.10,2017-04-27 12:11:00,
2017-04-27 05:26:00,57.9,55.0,29.71,North,5,0.0,-999.0,91,-99.99,,,0.00,weatherlink.com 1.10,2017-04-27 12:26:00,
2017-04-27 05:41:00,58.0,55.0,29.72,North,5,0.0,-999.0,91,-99.99,,,0.00,weatherlink.com 1.10,2017-04-27 12:41:00,
2017-04-27 05:56:00,58.1,56.0,29.71,North,5,0.0,-999.0,91,-99.99,,,0.00,weatherlink.com 1.10,2017-04-27 12:56:00,
2017-04-27 06:11:00,58.4,56.0,29.72,North,5,0.0,-999.0,91,-99.99,,,0.00,weatherlink.com 1.10,2017-04-27 13:11:00,
2017-04-27 06:26:00,58.5,56.0,29.73,ENE,67,0.0,-999.0,91,-99.99,,,0.00,weatherlink.com 1.10,2017-04-27 13:26:00,
2017-04-27 06:41:00,58.7,56.0,29.73,North,11,0.0,-999.0,91,-99.99,,,0.00,weatherlink.com 1.10,2017-04-27 13:41:00,
2017-04-27 06:56:00,58.9,56.0,29.73,NNE,17,0.0,-999.0,91,-99.99,,,0.00,weatherlink.com 1.10,2017-04-27 13:56:00,
2017-04-27 07:11:00,58.8,56.0,29.73,ENE,70,0.0,-999.0,91,-99.99,,,0.00,weatherlink.com 1.10,2017-04-27 14:11:00,
2017-04-27 07:26:00,58.7,56.0,29.73,ENE,67,0.0,-999.0,91,-99.99,,,0.00,weatherlink.com 1.10,2017-04-27 14:26:00,
2017-04-27 07:41:00,58.8,56.0,29.73,NNE,29,0.0,-999.0,91,-99.99,,,0.00,weatherlink.com 1.10,2017-04-27 14:41:00,
2017-04-27 07:56:00,59.4,57.0,29.74,NE,47,0.0,-999.0,91,-99.99,,,0.00,weatherlink.com 1.10,2017-04-27 14:56:00,
2017-04-27 08:11:00,60.3,58.0,29.74,NE,46,0.0,-999.0,91,-99.99,,,0.00,weatherlink.com 1.10,2017-04-27 15:11:00,
2017-04-27 08:26:00,61.0,58.0,29.73,NE,45,0.0,-999.0,89,-99.99,,,0.00,weatherlink.com 1.10,2017-04-27 15:26:00,
2017-04-27 08:41:00,62.0,59.0,29.74,ESE,106,0.0,-999.0,89,-99.99,,,0.00,weatherlink.com 1.10,2017-04-27 15:41:00,
2017-04-27 08:56:00,63.7,60.0,29.74,ESE,109,1.0,-999.0,86,-99.99,,,0.00,weatherlink.com 1.10,2017-04-27 15:56:00,
2017-04-27 09:11:00,64.6,59.0,29.74,ESE,112,0.0,-999.0,83,-99.99,,,0.00,weatherlink.com 1.10,2017-04-27 16:11:00,
2017-04-27 09:26:00,65.6,60.0,29.73,ESE,116,0.0,-999.0,81,-99.99,,,0.00,weatherlink.com 1.10,2017-04-27 16:26:00,
2017-04-27 09:41:00,66.7,60.0,29.73,SE,141,0.0,-999.0,78,-99.99,,,0.00,weatherlink.com 1.10,2017-04-27 16:41:00,
2017-04-27 09:56:00,67.3,60.0,29.74,East,79,0.0,-999.0,77,-99.99,,,0.00,weatherlink.com 1.10,2017-04-27 16:56:00,
2017-04-27 10:11:00,68.2,60.0,29.74,ESE,117,2.0,-999.0,76,-99.99,,,0.00,weatherlink.com 1.10,2017-04-27 17:11:00,
2017-04-27 10:26:00,67.9,60.0,29.74,ESE,108,5.0,-999.0,76,-99.99,,,0.00,weatherlink.com 1.10,2017-04-27 17:26:00,
2017-04-27 10:41:00,68.9,60.0,29.74,ENE,75,1.0,-999.0,74,-99.99,,,0.00,weatherlink.com 1.10,2017-04-27 17:41:00,
2017-04-27 10:56:00,68.5,60.0,29.74,ENE,76,0.0,-999.0,74,-99.99,,,0.00,weatherlink.com 1.10,2017-04-27 17:56:00,
2017-04-27 11:12:00,68.6,60.0,29.74,East,99,4.0,-999.0,74,-99.99,,,0.00,weatherlink.com 1.10,2017-04-27 18:12:00,
2017-04-27 11:26:00,68.9,60.0,29.74,East,83,4.0,-999.0,74,-99.99,,,0.00,weatherlink.com 1.10,2017-04-27 18:26:00,
2017-04-27 11:41:00,69.6,60.0,29.74,ESE,122,9.0,-999.0,72,-99.99,,,0.00,weatherlink.com 1.10,2017-04-27 18:41:00,
2017-04-27 11:56:00,69.9,60.0,29.73,East,100,7.0,-999.0,72,-99.99,,,0.00,weatherlink.com 1.10,2017-04-27 18:56:00,
2017-04-27 12:11:00,70.5,60.0,29.73,ENE,63,0.0,-999.0,69,-99.99,,,0.00,weatherlink.com 1.10,2017-04-27 19:11:00,
2017-04-27 12:26:00,70.8,60.0,29.73,ENE,65,2.0,-999.0,69,-99.99,,,0.00,weatherlink.com 1.10,2017-04-27 19:26:00,
2017-04-27 12:41:00,71.5,60.0,29.72,SE,137,8.0,-999.0,67,-99.99,,,0.00,weatherlink.com 1.10,2017-04-27 19:41:00,
2017-04-27 12:56:00,70.5,59.0,29.71,East,87,1.0,-999.0,68,-99.99,,,0.00,weatherlink.com 1.10,2017-04-27 19:56:00,
2017-04-27 13:11:00,71.6,59.0,29.70,ESE,105,0.0,-999.0,65,-99.99,,,0.00,weatherlink.com 1.10,2017-04-27 20:11:00,
2017-04-27 13:26:00,72.1,59.0,29.70,SSE,151,0.0,-999.0,63,-99.99,,,0.00,weatherlink.com 1.10,2017-04-27 20:26:00,
2017-04-27 13:41:00,73.4,59.0,29.69,ESE,107,1.0,-999.0,62,-99.99,,,0.00,weatherlink.com 1.10,2017-04-27 20:41:00,
2017-04-27 13:57:00,72.8,59.0,29.69,ESE,103,1.0,-999.0,63,-99.99,,,0.00,weatherlink.com 1.10,2017-04-27 20:57:00,
2017-04-27 14:12:00,73.7,60.0,29.68,SE,136,0.0,-999.0,62,-99.99,,,0.00,weatherlink.com 1.10,2017-04-27 21:12:00,
2017-04-27 14:42:00,78.6,57.0,29.67,SE,135,0.0,-999.0,47,-99.99,,,0.00,weatherlink.com 1.10,2017-04-27 21:42:00,
2017-04-27 14:57:00,78.8,57.0,29.66,SE,137,1.0,-999.0,47,-99.99,,,0.00,weatherlink.com 1.10,2017-04-27 21:57:00,
2017-04-27 15:12:00,77.4,57.0,29.65,West,271,1.0,-999.0,49,-99.99,,,0.00,weatherlink.com 1.10,2017-04-27 22:12:00,
2017-04-27 15:27:00,76.5,56.0,29.65,SSE,166,3.0,-999.0,49,-99.99,,,0.00,weatherlink.com 1.10,2017-04-27 22:27:00,
2017-04-27 15:42:00,73.0,55.0,29.65,SW,225,4.0,-999.0,54,-99.99,,,0.00,weatherlink.com 1.10,2017-04-27 22:42:00,
2017-04-27 15:57:00,72.5,55.0,29.64,SSW,194,4.0,-999.0,55,-99.99,,,0.00,weatherlink.com 1.10,2017-04-27 22:57:00,
2017-04-27 16:12:00,73.5,56.0,29.64,South,177,1.0,-999.0,54,-99.99,,,0.00,weatherlink.com 1.10,2017-04-27 23:12:00,
2017-04-27 16:27:00,75.7,57.0,29.63,South,186,0.0,-999.0,52,-99.99,,,0.00,weatherlink.com 1.10,2017-04-27 23:27:00,
2017-04-27 16:42:00,78.1,55.0,29.64,SSE,167,0.0,-999.0,45,-99.99,,,0.00,weatherlink.com 1.10,2017-04-27 23:42:00,
2017-04-27 16:57:00,79.4,55.0,29.63,South,182,0.0,-999.0,43,-99.99,,,0.00,weatherlink.com 1.10,2017-04-27 23:57:00,
2017-04-27 17:12:00,80.3,54.0,29.63,South,171,0.0,-999.0,41,-99.99,,,0.00,weatherlink.com 1.10,2017-04-28 00:12:00,
2017-04-27 17:27:00,80.3,54.0,29.63,SW,227,0.0,-999.0,40,-99.99,,,0.00,weatherlink.com 1.10,2017-04-28 00:27:00,
2017-04-27 17:42:00,78.2,53.0,29.63,SSW,207,1.0,-999.0,42,-99.99,,,0.00,weatherlink.com 1.10,2017-04-28 00:42:00,
2017-04-27 17:57:00,78.0,54.0,29.63,SSW,194,0.0,-999.0,43,-99.99,,,0.00,weatherlink.com 1.10,2017-04-28 00:57:00,